createdAt,value
2018-08-17T00:02:08.213Z,14.30
2018-08-17T00:07:11.477Z,12.77
2018-08-17T00:12:14.686Z,13.50
2018-08-17T00:17:17.905Z,13.57
2018-08-17T00:22:21.234Z,13.47
2018-08-17T00:27:24.509Z,13.40
2018-08-17T00:32:27.694Z,13.50
2018-08-17T00:37:30.922Z,13.43
2018-08-17T00:42:34.147Z,13.17
2018-08-17T00:47:37.353Z,13.50
2018-08-17T00:52:40.559Z,13.33
2018-08-17T00:57:43.807Z,14.03
2018-08-17T01:02:47.010Z,14.37
2018-08-17T01:07:50.214Z,15.30
2018-08-17T01:12:53.489Z,14.90
2018-08-17T01:17:56.705Z,12.87
2018-08-17T01:22:59.929Z,14.67
2018-08-17T01:28:03.133Z,13.80
2018-08-17T01:33:06.593Z,13.93
2018-08-17T01:38:09.830Z,15.40
2018-08-17T01:43:13.081Z,13.37
2018-08-17T01:48:16.282Z,13.87
2018-08-17T01:53:19.789Z,14.47
2018-08-17T01:58:23.029Z,14.90
2018-08-17T02:03:26.233Z,14.40
2018-08-17T02:08:29.829Z,13.10
2018-08-17T02:13:38.081Z,15.07
2018-08-17T02:18:41.278Z,16.00
2018-08-17T02:23:44.501Z,15.40
2018-08-17T02:28:47.683Z,15.63
2018-08-17T02:33:50.896Z,15.73
2018-08-17T02:38:54.098Z,17.77
2018-08-17T02:43:57.286Z,19.40
2018-08-17T02:49:00.571Z,19.97
2018-08-17T02:54:04.962Z,20.93
2018-08-17T02:59:08.553Z,20.77
2018-08-17T03:04:11.798Z,20.07
2018-08-17T03:09:15.002Z,20.53
2018-08-17T03:14:18.290Z,21.47
2018-08-17T03:19:21.498Z,19.77
2018-08-17T03:24:29.002Z,22.90
2018-08-17T03:29:32.253Z,20.83
2018-08-17T03:34:35.494Z,20.53
2018-08-17T03:39:38.755Z,18.73
2018-08-17T03:44:42.023Z,17.00
2018-08-17T03:49:45.307Z,18.33
2018-08-17T03:54:48.934Z,15.53
2018-08-17T03:59:52.195Z,14.97
2018-08-17T04:04:55.929Z,15.80
2018-08-17T04:10:03.882Z,14.40
2018-08-17T04:15:08.889Z,14.60
2018-08-17T04:20:20.239Z,15.87
2018-08-17T04:25:23.524Z,14.00
2018-08-17T04:30:28.841Z,13.63
2018-08-17T04:35:32.237Z,14.00
2018-08-17T04:40:43.685Z,14.80
2018-08-17T04:45:47.047Z,14.47
2018-08-17T04:50:50.411Z,12.97
2018-08-17T04:55:53.622Z,12.60
2018-08-17T05:00:58.486Z,13.00
2018-08-17T05:06:01.850Z,12.77
2018-08-17T05:11:05.153Z,12.40
2018-08-17T05:16:08.544Z,11.73
2018-08-17T05:21:11.838Z,11.17
2018-08-17T05:26:15.067Z,9.53
2018-08-17T05:31:18.335Z,10.23
2018-08-17T05:36:21.543Z,9.80
2018-08-17T05:41:24.842Z,9.67
2018-08-17T05:46:28.235Z,7.73
2018-08-17T05:51:33.676Z,8.43
2018-08-17T05:56:38.773Z,8.53
2018-08-17T06:01:43.354Z,7.20
2018-08-17T06:06:46.692Z,6.77
2018-08-17T06:11:53.094Z,6.83
2018-08-17T06:16:56.401Z,5.57
2018-08-17T06:22:00.714Z,5.90
2018-08-17T06:27:03.980Z,5.87
2018-08-17T06:32:07.990Z,5.73
2018-08-17T06:37:11.390Z,5.53
2018-08-17T06:42:21.230Z,5.13
2018-08-17T06:47:24.449Z,6.67
2018-08-17T06:52:27.734Z,5.27
2018-08-17T06:57:30.962Z,5.77
2018-08-17T07:02:34.207Z,6.40
2018-08-17T07:07:38.573Z,6.20
2018-08-17T07:12:45.066Z,6.83
2018-08-17T07:17:49.286Z,5.80
2018-08-17T07:22:56.055Z,6.80
2018-08-17T07:27:59.283Z,6.70
2018-08-17T07:33:02.510Z,6.63
2018-08-17T07:38:05.782Z,7.40
2018-08-17T07:43:09.035Z,6.83
2018-08-17T07:48:16.053Z,8.07
2018-08-17T07:53:20.007Z,8.27
2018-08-17T07:58:23.604Z,9.43
2018-08-17T08:03:26.821Z,8.97
2018-08-17T08:08:30.155Z,9.27
2018-08-17T08:13:33.568Z,10.30
2018-08-17T08:18:38.906Z,9.57
2018-08-17T08:23:43.189Z,11.63
2018-08-17T08:28:46.418Z,10.93
2018-08-17T08:33:50.784Z,11.20
2018-08-17T08:38:53.981Z,11.90
2018-08-17T08:43:58.311Z,12.50
2018-08-17T08:49:01.574Z,13.23
2018-08-17T08:54:04.971Z,12.67
2018-08-17T08:59:10.865Z,21.37
2018-08-17T09:04:24.190Z,13.33
2018-08-17T09:09:27.626Z,12.17
2018-08-17T09:14:31.929Z,13.53
2018-08-17T09:19:35.262Z,13.43
2018-08-17T09:24:42.190Z,12.70
2018-08-17T09:29:46.733Z,12.17
2018-08-17T09:35:02.851Z,14.13
2018-08-17T09:40:07.101Z,16.90
2018-08-17T09:45:12.563Z,22.40
2018-08-17T09:50:17.874Z,19.60
2018-08-17T09:55:21.694Z,20.57
2018-08-17T10:00:30.455Z,21.43
2018-08-17T10:05:38.579Z,23.10
2018-08-17T10:10:42.554Z,20.27
2018-08-17T10:15:46.014Z,22.47
2018-08-17T10:20:50.220Z,22.47
2018-08-17T10:25:53.769Z,22.53
2018-08-17T10:31:15.131Z,23.53
2018-08-17T10:36:28.480Z,22.53
2018-08-17T10:41:36.985Z,20.80
2018-08-17T10:46:47.086Z,17.13
2018-08-17T10:52:06.382Z,17.03
2018-08-17T10:57:17.328Z,16.10
2018-08-17T11:02:24.711Z,14.47
2018-08-17T11:07:35.813Z,16.53
2018-08-17T11:12:41.048Z,14.03
2018-08-17T11:17:47.694Z,11.57
2018-08-17T11:22:52.180Z,12.83
2018-08-17T11:28:00.889Z,11.67
2018-08-17T11:33:05.358Z,10.47
2018-08-17T11:38:16.860Z,9.33
2018-08-17T11:43:20.086Z,9.50
2018-08-17T11:48:29.390Z,8.67
2018-08-17T11:53:33.201Z,10.40
2018-08-17T11:58:36.690Z,14.27
2018-08-17T12:03:40.980Z,14.20
2018-08-17T12:08:44.523Z,15.40
2018-08-17T12:13:57.691Z,13.50
2018-08-17T12:19:01.242Z,11.80
2018-08-17T12:24:07.843Z,10.60
2018-08-17T12:29:11.030Z,12.00
2018-08-17T12:34:14.342Z,11.93
2018-08-17T12:39:18.758Z,10.90
2018-08-17T12:44:23.499Z,9.00
2018-08-17T12:49:28.921Z,7.17
2018-08-17T12:54:33.062Z,7.23
2018-08-17T12:59:47.298Z,28.40
2018-08-17T13:05:05.941Z,8.03
2018-08-17T13:10:23.606Z,9.03
2018-08-17T13:20:43.461Z,8.57
2018-08-17T13:25:52.983Z,10.70
2018-08-17T13:30:57.194Z,13.03
2018-08-17T13:36:00.605Z,14.17
2018-08-17T13:41:04.926Z,13.63
2018-08-17T13:46:08.550Z,15.93
2018-08-17T13:51:11.850Z,13.23
2018-08-17T13:56:17.449Z,15.00
2018-08-17T14:01:20.702Z,11.97
2018-08-17T14:06:24.077Z,10.23
2018-08-17T14:11:28.358Z,8.70
2018-08-17T14:16:37.954Z,7.80
2018-08-17T14:21:41.354Z,7.27
2018-08-17T14:26:49.947Z,6.37
2018-08-17T14:31:53.193Z,6.03
2018-08-17T14:36:56.462Z,5.27
2018-08-17T14:42:01.206Z,5.30
2018-08-17T14:47:04.539Z,5.97
2018-08-17T14:52:12.953Z,4.10
2018-08-17T14:57:16.973Z,3.57
2018-08-17T15:02:20.673Z,2.77
2018-08-17T15:07:28.671Z,2.43
2018-08-17T15:12:34.979Z,1.87
2018-08-17T15:17:40.363Z,2.40
2018-08-17T15:22:44.048Z,2.63
2018-08-17T15:27:47.238Z,2.43
2018-08-17T15:32:52.500Z,2.53
2018-08-17T15:37:59.511Z,3.10
2018-08-17T15:43:14.389Z,4.00
2018-08-17T15:48:18.145Z,4.70
2018-08-17T15:53:21.318Z,3.80
2018-08-17T15:58:25.183Z,5.97
2018-08-17T16:03:33.166Z,5.20
2018-08-17T16:08:38.832Z,4.10
2018-08-17T16:13:42.080Z,4.40
2018-08-17T16:18:46.258Z,3.83
2018-08-17T16:23:59.898Z,4.00
2018-08-17T16:29:04.543Z,3.33
2018-08-17T16:34:08.673Z,4.00
2018-08-17T16:39:16.086Z,4.20
2018-08-17T16:44:20.491Z,3.43
2018-08-17T16:49:23.727Z,3.03
2018-08-17T16:54:27.024Z,3.30
2018-08-17T16:59:33.508Z,3.17
2018-08-17T17:04:40.877Z,2.90
2018-08-17T17:09:44.110Z,2.73
2018-08-17T17:15:07.063Z,2.83
2018-08-17T17:20:10.896Z,2.33
2018-08-17T17:25:18.398Z,2.47
2018-08-17T17:30:21.734Z,2.00
2018-08-17T17:35:25.014Z,2.30
2018-08-17T17:40:29.256Z,2.07
2018-08-17T17:45:34.899Z,2.27
2018-08-17T17:50:49.910Z,2.40
2018-08-17T17:55:54.226Z,2.20
2018-08-17T18:01:08.175Z,2.10
2018-08-17T18:06:11.436Z,2.30
2018-08-17T18:11:14.769Z,2.03
2018-08-17T18:16:17.978Z,1.60
2018-08-17T18:21:21.294Z,2.13
2018-08-17T18:26:26.466Z,1.92
2018-08-17T18:31:29.699Z,1.73
2018-08-17T18:36:34.970Z,2.03
2018-08-17T18:41:48.890Z,3.07
2018-08-17T18:46:52.082Z,3.07
2018-08-17T18:51:55.373Z,3.13
2018-08-17T18:56:58.578Z,3.23
2018-08-17T19:02:12.054Z,2.73
2018-08-17T19:07:15.353Z,2.87
2018-08-17T19:12:18.779Z,3.10
2018-08-17T19:17:30.135Z,2.67
2018-08-17T19:22:40.557Z,3.23
2018-08-17T19:27:44.226Z,3.23
2018-08-17T19:32:47.502Z,3.70
2018-08-17T19:37:51.684Z,3.47
2018-08-17T19:42:54.947Z,3.80
2018-08-17T19:47:58.214Z,3.87
2018-08-17T19:53:03.518Z,3.30
2018-08-17T19:58:14.448Z,3.67
2018-08-17T20:03:17.614Z,3.57
2018-08-17T20:08:22.823Z,4.10
2018-08-17T20:13:26.059Z,4.20
2018-08-17T20:18:29.771Z,3.50
2018-08-17T20:23:44.890Z,3.90
2018-08-17T20:28:48.186Z,4.07
2018-08-17T20:33:51.504Z,4.00
2018-08-17T20:38:58.493Z,3.80
2018-08-17T20:44:01.798Z,3.07
2018-08-17T20:49:05.260Z,3.37
2018-08-17T20:54:08.622Z,2.90
2018-08-17T20:59:11.938Z,3.80
2018-08-17T21:04:15.322Z,3.10
2018-08-17T21:09:22.082Z,2.97
2018-08-17T21:14:26.449Z,3.30
2018-08-17T21:19:36.810Z,3.33
2018-08-17T21:24:40.316Z,3.73
2018-08-17T21:29:44.634Z,3.83
2018-08-17T21:34:47.911Z,4.07
2018-08-17T21:39:57.210Z,3.37
2018-08-17T21:45:03.686Z,4.00
2018-08-17T21:50:11.658Z,3.70
2018-08-17T21:55:15.486Z,3.13
2018-08-17T22:00:27.750Z,4.20
2018-08-17T22:05:33.370Z,3.20
2018-08-17T22:10:37.172Z,3.47
2018-08-17T22:15:40.458Z,3.97
2018-08-17T22:20:44.082Z,3.20
2018-08-17T22:25:47.288Z,3.77
2018-08-17T22:30:50.902Z,3.27
2018-08-17T22:35:54.142Z,3.60
2018-08-17T22:40:58.470Z,4.10
2018-08-17T22:46:01.701Z,4.07
2018-08-17T22:51:04.990Z,4.03
2018-08-17T22:56:08.229Z,4.17
2018-08-17T23:01:11.670Z,4.03
2018-08-17T23:06:18.159Z,4.30
2018-08-17T23:11:37.959Z,4.07
2018-08-17T23:16:48.046Z,3.93
2018-08-17T23:21:51.254Z,4.57
2018-08-17T23:26:54.458Z,4.57
2018-08-17T23:31:57.705Z,4.03
2018-08-17T23:37:00.945Z,4.53
2018-08-17T23:42:04.176Z,4.60
2018-08-17T23:47:17.032Z,4.50
2018-08-17T23:52:20.274Z,4.77
2018-08-17T23:57:23.541Z,4.57
